»·PEaware :: DCAAA KSEA-KGEG

DCAAA :: KSEA-KGEG

FLIGHT INFORMATION

Flight Status: Arrived
Operator: Unknown
More flights by this operator :: More flights under this callsign
Pilot: Klaus A. (15485)
Aircraft: BOMBARDIER BD-100 CHALLENGER 300
(CL30)
More flights by this aircraft type
Origin: KSEA Seattle-Tacoma Intl
United States
Destination: KGEG Spokane Intl
United States
More flights between these airports :: More routes between these airports
Route: +SEA6 SEA ZADON ZELAK ZIRAN ZOOMR ZOOMR1
File this flight plan on PilotEdge
Remarks: PBN / D1 DOF / 180809 REG / DCAAA PER / C RMK / TCAS SIMBRIEF
Altitude:
(Current/Filed)
26,000ft
Speed:
(Current/Filed)
486kts
Departed: 09-Aug-18 08:48 AM
Arrived: 09-Aug-18 09:33 AM
Distance/Time
Traveled:
194nm/0:45
Distance/Time
To Go:
Arrived

Flight Plot

Page will automatically refresh every two minutes.

Flight plan parsing failed; only flown route is shown


Map Options




Map Legend


Flown Route
Filed Route
Departure Airport
Arrival Airport
Navaid (VOR, NDB)
Fix

Horizontal Profiles

Position Reports

Time Latitude Longitude Heading Altitude Ground
Speed
09-Aug-18 08:25 47.438361 -122.315218 0 440ft 0kts
09-Aug-18 08:26 47.438361 -122.315218 0 440ft 0kts
09-Aug-18 08:27 47.438361 -122.315218 0 440ft 0kts
09-Aug-18 08:28 47.438361 -122.315218 0 440ft 0kts
09-Aug-18 08:29 47.438361 -122.315218 0 440ft 0kts
09-Aug-18 08:30 47.438361 -122.315218 0 440ft 0kts
09-Aug-18 08:31 47.438361 -122.315218 0 440ft 0kts
09-Aug-18 08:32 47.438361 -122.315218 0 440ft 0kts
09-Aug-18 08:33 47.438361 -122.315218 0 440ft 0kts
09-Aug-18 08:34 47.438361 -122.315218 0 440ft 0kts
09-Aug-18 08:35 47.438361 -122.315218 0 440ft 0kts
09-Aug-18 08:36 47.438361 -122.315218 0 440ft 0kts
09-Aug-18 08:37 47.438361 -122.315218 0 440ft 0kts
09-Aug-18 08:38 47.438361 -122.315218 0 440ft 0kts
09-Aug-18 08:39 47.438361 -122.315218 360 440ft 0kts
09-Aug-18 08:40 47.438361 -122.315218 360 440ft 0kts
09-Aug-18 08:41 47.438361 -122.315218 360 440ft 0kts
09-Aug-18 08:42 47.438361 -122.315218 360 440ft 0kts
09-Aug-18 08:43 47.438361 -122.315218 360 440ft 0kts
09-Aug-18 08:44 47.438361 -122.315218 360 440ft 0kts
09-Aug-18 08:45 47.438438 -122.315216 2 440ft 3kts
09-Aug-18 08:46 47.438134 -122.310895 51 440ft 7kts
09-Aug-18 08:47 47.440046 -122.313623 1 440ft 20kts
09-Aug-18 08:48 47.448629 -122.313567 0 440ft 40kts
09-Aug-18 08:49 47.461627 -122.313422 0 440ft 46kts
09-Aug-18 08:50 47.463634 -122.313807 290 440ft 0kts
09-Aug-18 08:51 47.463634 -122.313807 290 440ft 0kts
09-Aug-18 08:52 47.463634 -122.313807 290 440ft 0kts
09-Aug-18 08:53 47.463658 -122.313933 282 440ft 7kts
09-Aug-18 08:54 47.457851 -122.317874 179 440ft 107kts
09-Aug-18 08:55 47.407252 -122.317634 179 2949ft 213kts
09-Aug-18 08:56 47.344287 -122.315413 179 5707ft 234kts
09-Aug-18 08:57 47.277016 -122.313299 177 8780ft 260kts
09-Aug-18 08:58 47.259625 -122.221174 48 11521ft 322kts
09-Aug-18 08:59 47.331317 -122.125533 49 14274ft 373kts
09-Aug-18 09:00 47.383581 -121.986469 63 15075ft 382kts
09-Aug-18 09:01 47.433282 -121.850513 56 17040ft 385kts
09-Aug-18 09:02 47.501962 -121.725217 51 19560ft 399kts
09-Aug-18 09:03 47.550979 -121.581659 77 22059ft 398kts
09-Aug-18 09:04 47.556578 -121.421473 93 24547ft 392kts
09-Aug-18 09:05 47.555023 -121.251622 94 25229ft 455kts
09-Aug-18 09:06 47.552161 -121.065629 94 25219ft 450kts
09-Aug-18 09:07 47.548760 -120.879597 94 25220ft 453kts
09-Aug-18 09:08 47.544970 -120.692986 93 25050ft 457kts
09-Aug-18 09:09 47.540902 -120.505707 93 25047ft 454kts
09-Aug-18 09:10 47.534481 -120.321993 96 25045ft 452kts
09-Aug-18 09:11 47.526024 -120.137350 96 25045ft 450kts
09-Aug-18 09:12 47.517228 -119.952690 96 25045ft 449kts
09-Aug-18 09:13 47.508167 -119.769105 96 25037ft 449kts
09-Aug-18 09:14 47.498753 -119.584653 95 25038ft 450kts
09-Aug-18 09:15 47.489043 -119.399965 95 24855ft 451kts
09-Aug-18 09:16 47.479498 -119.223879 96 22611ft 419kts
09-Aug-18 09:17 47.470121 -119.055662 96 20311ft 407kts
09-Aug-18 09:18 47.460758 -118.891860 96 18011ft 394kts
09-Aug-18 09:19 47.451573 -118.735074 96 15706ft 375kts
09-Aug-18 09:20 47.442565 -118.585056 95 13406ft 360kts
09-Aug-18 09:21 47.448635 -118.443068 74 11136ft 340kts
09-Aug-18 09:22 47.438691 -118.326242 105 11125ft 285kts
09-Aug-18 09:23 47.438402 -118.213104 104 11009ft 276kts
09-Aug-18 09:24 47.420862 -118.103104 104 9505ft 277kts
09-Aug-18 09:25 47.402513 -117.993500 104 7966ft 269kts
09-Aug-18 09:26 47.409384 -117.890703 74 6362ft 241kts
09-Aug-18 09:27 47.435199 -117.812719 42 4994ft 188kts
09-Aug-18 09:28 47.467584 -117.763793 42 5050ft 169kts
09-Aug-18 09:29 47.501294 -117.713343 42 5029ft 163kts
09-Aug-18 09:30 47.534502 -117.663799 43 4593ft 164kts
09-Aug-18 09:31 47.561579 -117.623099 43 3764ft 131kts
09-Aug-18 09:32 47.587160 -117.584812 43 3052ft 127kts
09-Aug-18 09:33 47.610584 -117.549337 46 2440ft 116kts
09-Aug-18 09:34 47.620975 -117.533676 43 2391ft 18kts
09-Aug-18 09:35 47.620438 -117.531381 98 2391ft 0kts
09-Aug-18 09:36 47.621371 -117.529585 70 2391ft 8kts
09-Aug-18 09:37 47.620619 -117.527343 270 2391ft 0kts
09-Aug-18 09:38 47.620619 -117.527343 270 2391ft 0kts
09-Aug-18 09:39 47.620619 -117.527343 270 2391ft 0kts
09-Aug-18 09:40 47.620619 -117.527343 270 2391ft 0kts
09-Aug-18 09:41 47.620619 -117.527343 270 2391ft 0kts

Navigation Log

Ident Type
Flight plan parsing failed, navigation log unavailable